Time;durP1;ratioP1;P1;durP2;ratioP2;P2;SDS_P1;SDS_P2;PMS_P1;PMS_P2;Temp;Humidity;BMP_temperature;BMP_pressure;BME280_temperature;BME280_humidity;BME280_pressure;Samples;Min_cycle;Max_cycle;Signal;HPM_P1;HPM_P2
2024/03/06 00:00:41;;;;;;;2.03;1.60;;;;;;;0.46;95.73;100422.06;4956318;28;20132;-70
2024/03/06 00:03:06;;;;;;;2.83;1.50;;;;;;;0.45;95.53;100416.91;4990593;28;20117;-70
2024/03/06 00:05:32;;;;;;;4.50;1.90;;;;;;;0.42;94.86;100420.53;4995640;28;20076;-70
2024/03/06 00:07:58;;;;;;;6.10;1.70;;;;;;;0.37;95.31;100421.69;4962816;28;20093;-70
2024/03/06 00:10:24;;;;;;;1.47;1.30;;;;;;;0.33;95.23;100422.75;4962758;28;20136;-71
2024/03/06 00:12:51;;;;;;;2.50;1.60;;;;;;;0.32;95.14;100427.13;4978858;28;20420;-72
2024/03/06 00:15:17;;;;;;;2.33;1.57;;;;;;;0.18;95.47;100421.72;4980247;28;20057;-72
2024/03/06 00:17:43;;;;;;;2.17;1.43;;;;;;;0.14;95.84;100440.25;4947903;28;20072;-71
2024/03/06 00:20:10;;;;;;;2.13;1.70;;;;;;;0.06;96.65;100429.31;4994948;28;20119;-71
2024/03/06 00:22:36;;;;;;;3.57;1.60;;;;;;;-0.05;96.94;100427.22;5001170;28;20057;-70
2024/03/06 00:25:02;;;;;;;4.27;1.70;;;;;;;-0.22;97.59;100420.19;5001955;28;20423;-70
2024/03/06 00:27:29;;;;;;;2.03;1.57;;;;;;;-0.27;98.33;100422.16;5017826;28;20200;-70
2024/03/06 00:29:55;;;;;;;5.83;2.00;;;;;;;-0.35;98.93;100431.22;5034649;28;20088;-71
2024/03/06 00:32:23;;;;;;;3.27;1.60;;;;;;;-0.42;99.64;100433.31;4978599;28;20057;-70
2024/03/06 00:34:50;;;;;;;2.63;1.40;;;;;;;-0.49;99.65;100424.03;4979044;28;20049;-69
2024/03/06 00:37:16;;;;;;;2.13;1.50;;;;;;;-0.59;99.78;100424.53;4994772;28;20115;-71
2024/03/06 00:39:43;;;;;;;4.97;2.03;;;;;;;-0.66;100.00;100426.56;4962351;28;20080;-71
2024/03/06 00:42:10;;;;;;;3.80;1.83;;;;;;;-0.74;100.00;100427.84;4923629;28;20075;-70
2024/03/06 00:44:37;;;;;;;2.63;1.70;;;;;;;-0.83;100.00;100433.47;4924336;28;20407;-70
2024/03/06 00:47:03;;;;;;;4.83;2.17;;;;;;;-0.92;100.00;100431.25;4908330;28;20061;-67
2024/03/06 00:49:29;;;;;;;3.63;2.03;;;;;;;-1.00;100.00;100435.97;4920434;29;20533;-68
2024/03/06 00:51:56;;;;;;;5.63;2.20;;;;;;;-1.06;100.00;100431.84;4952857;29;20063;-67
2024/03/06 00:54:22;;;;;;;3.90;2.20;;;;;;;-1.11;100.00;100426.00;4876870;29;20053;-67
2024/03/06 00:56:48;;;;;;;5.43;2.17;;;;;;;-1.12;100.00;100426.91;4859280;29;20291;-67
2024/03/06 00:59:14;;;;;;;2.70;2.10;;;;;;;-1.14;100.00;100431.34;4861578;29;20180;-67
2024/03/06 01:01:39;;;;;;;3.30;1.90;;;;;;;-1.19;100.00;100430.69;4860448;29;20060;-67
2024/03/06 01:04:06;;;;;;;3.00;1.90;;;;;;;-1.21;100.00;100435.13;4843267;29;20056;-67
2024/03/06 01:06:33;;;;;;;3.50;1.80;;;;;;;-1.22;100.00;100437.78;4843423;29;20161;-67
2024/03/06 01:08:59;;;;;;;2.67;1.77;;;;;;;-1.24;100.00;100427.41;4843634;29;20480;-67
2024/03/06 01:11:27;;;;;;;3.47;1.90;;;;;;;-1.26;100.00;100429.25;4839480;29;20492;-67
2024/03/06 01:13:54;;;;;;;3.57;2.00;;;;;;;-1.29;100.00;100426.75;4885223;29;20048;-67
2024/03/06 01:16:20;;;;;;;6.13;2.00;;;;;;;-1.31;100.00;100433.81;4895785;29;20488;-67
2024/03/06 01:18:46;;;;;;;3.13;1.63;;;;;;;-1.34;100.00;100427.88;4911787;29;20448;-67
2024/03/06 01:21:14;;;;;;;3.87;1.80;;;;;;;-1.34;100.00;100428.75;4925394;28;20062;-66
2024/03/06 01:23:42;;;;;;;3.70;2.10;;;;;;;-1.30;100.00;100438.09;4936492;29;20406;-67
2024/03/06 01:26:08;;;;;;;6.97;2.53;;;;;;;-1.37;100.00;100428.00;4989631;28;20057;-68
2024/03/06 01:28:34;;;;;;;3.70;2.20;;;;;;;-1.43;100.00;100431.69;5014978;28;20118;-68
2024/03/06 01:31:01;;;;;;;3.17;2.00;;;;;;;-1.47;100.00;100427.53;4982197;28;20049;-65
2024/03/06 01:33:29;;;;;;;4.23;1.80;;;;;;;-1.51;100.00;100428.59;5031138;28;20123;-68
2024/03/06 01:35:56;;;;;;;5.80;2.20;;;;;;;-1.51;100.00;100435.56;5030743;28;20053;-67
2024/03/06 01:38:23;;;;;;;3.07;2.10;;;;;;;-1.57;100.00;100431.47;4939716;28;20067;-67
2024/03/06 01:40:50;;;;;;;3.30;1.90;;;;;;;-1.62;100.00;100433.41;4936231;29;20162;-67
2024/03/06 01:43:24;;;;;;;3.93;2.00;;;;;;;-1.60;100.00;100434.19;4972207;28;20054;-67
2024/03/06 01:45:50;;;;;;;4.67;2.20;;;;;;;-1.69;100.00;100433.72;4959086;28;20050;-67
2024/03/06 01:48:17;;;;;;;5.67;2.03;;;;;;;-1.71;100.00;100433.78;4975163;28;20077;-67
2024/03/06 01:50:45;;;;;;;4.83;2.10;;;;;;;-1.80;100.00;100432.38;4991332;28;20054;-66
2024/03/06 01:53:13;;;;;;;7.33;1.77;;;;;;;-1.83;100.00;100434.28;4970449;28;20070;-67
2024/03/06 01:55:39;;;;;;;4.93;2.07;;;;;;;-1.90;100.00;100440.63;4937467;28;20059;-68
2024/03/06 01:58:05;;;;;;;4.07;2.20;;;;;;;-1.95;100.00;100434.75;4937067;28;20047;-67
2024/03/06 02:00:33;;;;;;;4.33;2.10;;;;;;;-1.95;100.00;100430.38;4953395;28;20624;-67
2024/03/06 02:02:59;;;;;;;6.50;3.03;;;;;;;-2.00;100.00;100431.50;4954145;28;20401;-67
2024/03/06 02:05:27;;;;;;;3.10;2.13;;;;;;;-1.99;100.00;100434.03;4953809;28;20043;-66
2024/03/06 02:07:53;;;;;;;4.90;1.70;;;;;;;-2.01;100.00;100440.19;4969611;28;20060;-66
2024/03/06 02:10:19;;;;;;;4.23;2.10;;;;;;;-2.08;100.00;100437.00;4955230;28;20408;-66
2024/03/06 02:12:45;;;;;;;5.67;1.77;;;;;;;-2.08;100.00;100449.16;4992136;28;20152;-66
2024/03/06 02:15:12;;;;;;;4.27;2.20;;;;;;;-2.13;100.00;100445.88;5010480;28;20444;-67
2024/03/06 02:17:38;;;;;;;6.23;2.43;;;;;;;-2.16;100.00;100446.00;4978349;28;20498;-66
2024/03/06 02:20:12;;;;;;;4.33;2.27;;;;;;;-2.26;100.00;100458.50;4993637;28;20065;-66
2024/03/06 02:22:39;;;;;;;4.80;2.13;;;;;;;-2.28;100.00;100449.06;4993108;28;20408;-66
2024/03/06 02:25:06;;;;;;;5.20;2.27;;;;;;;-2.22;100.00;100447.09;4975530;28;20137;-67
2024/03/06 02:27:32;;;;;;;4.63;2.27;;;;;;;-2.25;100.00;100443.75;4975686;28;20048;-66
2024/03/06 02:29:58;;;;;;;4.90;2.07;;;;;;;-2.28;100.00;100447.31;5004724;28;20052;-67
2024/03/06 02:32:24;;;;;;;5.50;2.00;;;;;;;-2.27;100.00;100443.81;5033586;28;20044;-67
2024/03/06 02:34:50;;;;;;;4.23;1.97;;;;;;;-2.23;100.00;100441.94;5018720;28;20049;-67
2024/03/06 02:37:16;;;;;;;3.33;1.80;;;;;;;-2.22;100.00;100446.22;5034528;28;20478;-66
2024/03/06 02:39:42;;;;;;;3.17;2.33;;;;;;;-2.20;100.00;100452.25;5034068;28;20040;-67
2024/03/06 02:42:07;;;;;;;4.73;2.03;;;;;;;-2.17;100.00;100449.50;5017891;28;20049;-66
2024/03/06 02:44:33;;;;;;;2.93;1.87;;;;;;;-2.16;100.00;100444.25;5017927;28;20403;-66
2024/03/06 02:46:59;;;;;;;3.40;1.80;;;;;;;-2.13;100.00;100451.06;5034169;28;20080;-66
2024/03/06 02:49:25;;;;;;;5.37;1.97;;;;;;;-2.15;100.00;100453.75;5050677;28;20049;-66
2024/03/06 02:51:51;;;;;;;3.97;1.83;;;;;;;-2.14;100.00;100452.81;5050452;28;20462;-66
2024/03/06 02:54:17;;;;;;;2.97;1.53;;;;;;;-2.15;100.00;100450.28;5001201;28;20098;-66
2024/03/06 02:56:43;;;;;;;3.27;2.10;;;;;;;-2.13;100.00;100457.13;5018239;28;20041;-66
2024/03/06 02:59:08;;;;;;;3.20;1.60;;;;;;;-2.16;100.00;100451.19;5034937;28;20045;-66
2024/03/06 03:01:35;;;;;;;2.60;1.93;;;;;;;-2.13;100.00;100459.75;5034819;28;20127;-66
2024/03/06 03:04:00;;;;;;;5.33;1.80;;;;;;;-2.12;100.00;100473.56;5034809;28;20440;-66
2024/03/06 03:06:26;;;;;;;2.50;1.77;;;;;;;-2.11;100.00;100475.28;5051792;28;20041;-67
2024/03/06 03:08:52;;;;;;;3.67;1.90;;;;;;;-2.09;100.00;100476.09;5033978;28;20056;-66
2024/03/06 03:11:18;;;;;;;2.57;1.60;;;;;;;-2.12;100.00;100476.19;5034499;28;20049;-65
2024/03/06 03:13:44;;;;;;;3.70;2.17;;;;;;;-2.10;100.00;100490.84;5051349;28;20048;-67
2024/03/06 03:16:20;;;;;;;6.70;2.33;;;;;;;-2.02;100.00;100487.94;5034784;28;20479;-66
2024/03/06 03:18:47;;;;;;;5.80;2.60;;;;;;;-2.07;100.00;100498.53;5034216;28;20544;-66
2024/03/06 03:21:14;;;;;;;3.67;2.60;;;;;;;-2.09;100.00;100491.72;5034713;28;20064;-68
2024/03/06 03:23:40;;;;;;;4.27;2.10;;;;;;;-2.13;100.00;100496.16;4986417;28;20076;-68
2024/03/06 03:26:10;;;;;;;3.50;2.03;;;;;;;-2.08;100.00;100493.41;4985965;28;20107;-70
2024/03/06 03:28:39;;;;;;;4.53;2.17;;;;;;;-2.07;100.00;100495.06;4985478;28;20539;-69
2024/03/06 03:31:09;;;;;;;3.63;2.37;;;;;;;-2.11;100.00;100496.13;4969317;28;20045;-69
2024/03/06 03:33:38;;;;;;;5.20;2.33;;;;;;;-2.18;100.00;100518.06;5001366;28;20045;-69
2024/03/06 03:36:06;;;;;;;5.07;1.90;;;;;;;-2.19;100.00;100505.97;4984987;28;20073;-69
2024/03/06 03:38:35;;;;;;;5.33;2.47;;;;;;;-2.25;100.00;100506.19;4984644;28;20555;-69
2024/03/06 03:41:03;;;;;;;4.80;2.20;;;;;;;-2.24;100.00;100507.88;4985348;28;20057;-68
2024/03/06 03:43:32;;;;;;;4.07;2.10;;;;;;;-2.23;100.00;100507.00;4985130;28;20144;-74
2024/03/06 03:45:58;;;;;;;3.13;2.30;;;;;;;-2.32;100.00;100509.94;4968865;28;20052;-72
2024/03/06 03:48:24;;;;;;;3.67;2.00;;;;;;;-2.35;100.00;100510.88;5001049;28;20135;-71
2024/03/06 03:50:50;;;;;;;3.57;2.00;;;;;;;-2.39;100.00;100511.03;4984846;28;20041;-70
2024/03/06 03:53:16;;;;;;;2.47;1.90;;;;;;;-2.43;100.00;100510.31;4968776;28;20045;-72
2024/03/06 03:55:42;;;;;;;2.67;2.00;;;;;;;-2.45;100.00;100501.72;4985395;28;20068;-73
2024/03/06 03:58:08;;;;;;;2.77;1.90;;;;;;;-2.48;100.00;100506.19;4985089;28;20064;-73
2024/03/06 04:00:33;;;;;;;3.73;2.13;;;;;;;-2.51;100.00;100501.97;4968943;28;20045;-70
2024/03/06 04:03:00;;;;;;;3.80;1.97;;;;;;;-2.55;100.00;100505.56;4984736;28;20048;-70
2024/03/06 04:05:26;;;;;;;5.20;2.30;;;;;;;-2.55;100.00;100504.72;4985228;28;20075;-66
2024/03/06 04:07:51;;;;;;;3.93;2.30;;;;;;;-2.60;100.00;100501.44;4984709;28;20037;-66
2024/03/06 04:10:17;;;;;;;2.73;1.93;;;;;;;-2.58;100.00;100508.25;5025545;28;20040;-66
2024/03/06 04:12:43;;;;;;;3.80;2.03;;;;;;;-2.60;100.00;100507.47;5009896;28;20042;-66
2024/03/06 04:15:09;;;;;;;2.77;1.80;;;;;;;-2.59;100.00;100500.53;5019779;28;20381;-66
2024/03/06 04:17:36;;;;;;;2.73;2.20;;;;;;;-2.59;100.00;100513.53;4995266;28;20048;-66
2024/03/06 04:20:03;;;;;;;2.80;2.00;;;;;;;-2.60;100.00;100512.66;5012809;28;20045;-66
2024/03/06 04:22:30;;;;;;;6.77;2.00;;;;;;;-2.61;100.00;100507.50;5045256;28;20056;-66
2024/03/06 04:24:56;;;;;;;3.07;1.80;;;;;;;-2.59;100.00;100513.53;5036943;28;20041;-66
2024/03/06 04:27:22;;;;;;;3.07;2.00;;;;;;;-2.56;100.00;100514.28;5050877;28;20040;-66
2024/03/06 04:29:48;;;;;;;5.57;2.00;;;;;;;-2.57;100.00;100507.38;5052939;28;20037;-66
2024/03/06 04:32:13;;;;;;;6.30;2.20;;;;;;;-2.53;100.00;100508.09;5061658;28;20067;-67
2024/03/06 04:34:41;;;;;;;5.10;2.33;;;;;;;-2.53;100.00;100518.50;5006320;28;20083;-70
2024/03/06 04:37:06;;;;;;;3.87;2.23;;;;;;;-2.49;100.00;100513.13;5052781;28;20079;-65
2024/03/06 04:39:32;;;;;;;3.47;2.13;;;;;;;-2.45;100.00;100513.88;5063565;28;20047;-66
2024/03/06 04:41:58;;;;;;;4.97;2.20;;;;;;;-2.42;99.75;100513.75;5063129;28;20036;-66
2024/03/06 04:44:24;;;;;;;4.23;1.70;;;;;;;-2.41;99.43;100505.91;5062033;28;20044;-65
2024/03/06 04:46:50;;;;;;;3.43;2.27;;;;;;;-2.39;98.76;100511.03;5030700;28;20065;-65
2024/03/06 04:49:16;;;;;;;5.33;2.60;;;;;;;-2.35;97.73;100508.28;5036153;28;20044;-65
2024/03/06 04:51:42;;;;;;;4.07;2.20;;;;;;;-2.33;97.52;100509.06;5047295;28;20032;-65
2024/03/06 04:54:08;;;;;;;3.87;2.10;;;;;;;-2.31;97.20;100507.28;5027287;28;20064;-65
2024/03/06 04:56:34;;;;;;;4.17;2.10;;;;;;;-2.27;97.05;100505.38;5049705;28;20090;-65
2024/03/06 04:59:02;;;;;;;5.30;2.47;;;;;;;-2.24;96.58;100511.34;5057617;28;20036;-66
2024/03/06 05:01:29;;;;;;;2.77;2.00;;;;;;;-2.18;96.84;100512.84;5061374;28;20436;-66
2024/03/06 05:03:55;;;;;;;2.70;2.13;;;;;;;-2.14;96.23;100512.66;5057232;28;20041;-67
2024/03/06 05:06:22;;;;;;;4.63;2.50;;;;;;;-2.09;95.76;100515.94;5042372;28;20099;-69
2024/03/06 05:08:48;;;;;;;3.93;2.37;;;;;;;-2.08;94.82;100509.00;5034970;28;20060;-69
2024/03/06 05:11:14;;;;;;;5.63;2.47;;;;;;;-2.05;94.10;100511.50;5051130;28;20048;-69
2024/03/06 05:13:40;;;;;;;4.33;2.23;;;;;;;-2.02;93.87;100512.22;5035875;28;20048;-68
2024/03/06 05:16:10;;;;;;;4.33;2.97;;;;;;;-1.99;92.96;100519.06;5019042;28;20037;-69
2024/03/06 05:18:36;;;;;;;5.40;2.70;;;;;;;-1.97;92.51;100515.47;5035301;28;20051;-69
2024/03/06 05:21:01;;;;;;;4.13;3.07;;;;;;;-1.95;92.68;100510.22;5035979;28;20049;-69
2024/03/06 05:23:27;;;;;;;4.23;2.30;;;;;;;-1.91;91.07;100514.41;5019239;28;20079;-69
2024/03/06 05:25:53;;;;;;;6.43;2.73;;;;;;;-1.89;89.33;100509.97;5036115;28;20522;-69
2024/03/06 05:28:19;;;;;;;5.00;2.90;;;;;;;-1.85;88.73;100508.97;5036535;28;20139;-69
2024/03/06 05:30:45;;;;;;;6.40;3.50;;;;;;;-1.76;88.97;100516.41;5052815;28;20055;-69
2024/03/06 05:33:11;;;;;;;4.53;2.80;;;;;;;-1.73;86.71;100518.91;5014729;28;20053;-69
2024/03/06 05:35:37;;;;;;;5.17;2.80;;;;;;;-1.69;85.05;100515.25;4998322;28;20068;-69
2024/03/06 05:38:03;;;;;;;4.37;2.97;;;;;;;-1.63;83.40;100520.25;5014757;28;20072;-69
2024/03/06 05:40:34;;;;;;;3.37;2.23;;;;;;;-1.58;82.16;100526.09;5015350;28;20526;-69
2024/03/06 05:43:01;;;;;;;3.20;2.40;;;;;;;-1.53;80.52;100524.19;5046402;28;20053;-69
2024/03/06 05:45:27;;;;;;;3.10;2.17;;;;;;;-1.50;79.36;100525.78;5014337;28;20114;-69
2024/03/06 05:47:53;;;;;;;6.10;2.37;;;;;;;-1.43;78.28;100530.69;4998073;28;20090;-69
2024/03/06 05:50:19;;;;;;;3.73;2.50;;;;;;;-1.36;77.24;100531.31;5007966;28;20492;-69
2024/03/06 05:52:45;;;;;;;5.70;2.37;;;;;;;-1.35;76.66;100530.41;5007795;28;20088;-69
2024/03/06 05:55:11;;;;;;;3.03;2.20;;;;;;;-1.30;76.06;100533.66;5007861;28;20116;-69
2024/03/06 05:57:37;;;;;;;2.70;2.10;;;;;;;-1.24;74.90;100531.66;4975000;28;20054;-69
2024/03/06 06:00:04;;;;;;;5.10;2.40;;;;;;;-1.16;73.59;100527.00;4943384;28;20054;-69
2024/03/06 06:02:38;;;;;;;2.93;2.00;;;;;;;-1.11;72.88;100529.41;4961388;28;20054;-69
2024/03/06 06:05:04;;;;;;;3.57;2.03;;;;;;;-1.02;71.97;100532.47;4976033;28;20512;-69
2024/03/06 06:07:30;;;;;;;3.70;2.20;;;;;;;-1.00;70.81;100527.19;4946075;28;20523;-69
2024/03/06 06:09:56;;;;;;;3.50;2.07;;;;;;;-0.93;70.50;100539.06;4961806;28;20046;-70
2024/03/06 06:12:22;;;;;;;7.00;2.20;;;;;;;-0.88;69.05;100531.91;4978514;28;20042;-69
2024/03/06 06:14:48;;;;;;;4.67;2.40;;;;;;;-0.82;67.64;100532.50;4962236;28;20103;-68
2024/03/06 06:17:17;;;;;;;9.60;2.60;;;;;;;-0.76;66.63;100537.44;4962025;28;20053;-69
2024/03/06 06:19:46;;;;;;;3.50;2.03;;;;;;;-0.71;66.40;100535.47;5010421;28;20160;-69
2024/03/06 06:22:18;;;;;;;4.33;2.00;;;;;;;-0.64;65.83;100536.91;5010450;28;20152;-69
2024/03/06 06:24:45;;;;;;;5.60;2.33;;;;;;;-0.55;64.80;100536.50;5014171;28;20060;-69
2024/03/06 06:27:13;;;;;;;5.93;2.57;;;;;;;-0.51;64.56;100532.00;4966000;28;20037;-69
2024/03/06 06:29:41;;;;;;;4.60;2.50;;;;;;;-0.38;63.86;100543.59;4997402;28;20123;-68
2024/03/06 06:32:09;;;;;;;7.93;3.10;;;;;;;-0.30;64.43;100536.28;4981803;28;20057;-68
2024/03/06 06:34:35;;;;;;;6.43;2.90;;;;;;;-0.13;64.57;100546.81;5004328;28;20124;-68
2024/03/06 06:37:01;;;;;;;5.37;2.83;;;;;;;0.02;64.50;100542.66;5018842;28;20037;-68
2024/03/06 06:39:27;;;;;;;7.97;4.20;;;;;;;0.18;63.61;100543.63;5035329;28;20045;-68
2024/03/06 06:41:53;;;;;;;3.77;2.63;;;;;;;0.37;62.71;100542.69;5002999;28;20045;-70
2024/03/06 06:44:19;;;;;;;4.77;2.20;;;;;;;0.61;61.31;100545.91;5035651;28;20123;-68
2024/03/06 06:46:45;;;;;;;3.97;2.53;;;;;;;0.92;61.35;100549.56;5018436;28;20052;-68
2024/03/06 06:49:11;;;;;;;4.70;2.70;;;;;;;1.41;62.07;100547.97;5032982;28;20056;-69
2024/03/06 06:51:38;;;;;;;5.17;2.50;;;;;;;1.87;61.01;100538.56;5000431;28;20055;-69
2024/03/06 06:54:04;;;;;;;6.40;2.47;;;;;;;2.41;59.40;100546.03;5016678;28;20448;-69
2024/03/06 06:56:31;;;;;;;4.03;2.30;;;;;;;2.88;56.97;100545.06;4999553;28;20369;-68
2024/03/06 06:58:57;;;;;;;3.53;2.30;;;;;;;3.26;55.01;100554.19;5000403;28;20061;-68
2024/03/06 07:01:23;;;;;;;3.70;2.57;;;;;;;3.65;52.76;100550.13;5017011;28;20127;-68
2024/03/06 07:03:49;;;;;;;5.80;2.60;;;;;;;4.13;51.55;100550.63;5016464;28;20052;-68
2024/03/06 07:06:15;;;;;;;8.63;2.83;;;;;;;4.60;50.01;100544.97;5013204;28;20056;-68
2024/03/06 07:08:41;;;;;;;8.53;3.93;;;;;;;5.05;47.77;100557.78;5013135;28;20127;-68
2024/03/06 07:11:08;;;;;;;5.40;2.87;;;;;;;5.48;46.37;100545.22;4980813;28;20491;-69
2024/03/06 07:13:34;;;;;;;3.80;2.70;;;;;;;5.91;45.14;100549.25;4996982;28;20045;-68
2024/03/06 07:16:00;;;;;;;3.97;2.80;;;;;;;6.25;43.22;100554.72;4996853;28;20509;-68
2024/03/06 07:18:25;;;;;;;6.70;3.60;;;;;;;6.57;42.56;100547.97;4997227;28;20503;-69
2024/03/06 07:20:51;;;;;;;5.40;2.72;;;;;;;6.77;41.37;100549.16;5012862;28;20523;-69
2024/03/06 07:23:17;;;;;;;8.00;2.95;;;;;;;6.95;40.44;100541.69;4999866;28;20057;-69
2024/03/06 07:25:43;;;;;;;2.53;2.20;;;;;;;7.07;39.14;100541.63;5032802;28;20458;-69
2024/03/06 07:28:09;;;;;;;4.90;2.30;;;;;;;7.20;38.57;100545.03;5032951;28;20045;-69
2024/03/06 07:30:35;;;;;;;3.72;2.20;;;;;;;7.31;38.15;100546.88;5049665;28;20440;-69
2024/03/06 07:33:01;;;;;;;3.30;2.30;;;;;;;7.40;37.45;100552.31;5016465;28;20056;-69
2024/03/06 07:35:27;;;;;;;3.95;2.80;;;;;;;7.58;36.73;100544.81;5016646;28;20041;-69
2024/03/06 07:37:52;;;;;;;6.93;2.83;;;;;;;7.81;35.90;100557.09;5017450;28;20060;-69
2024/03/06 07:40:18;;;;;;;3.80;2.65;;;;;;;8.09;35.78;100551.31;5033694;28;20057;-69
2024/03/06 07:42:44;;;;;;;3.97;2.78;;;;;;;8.40;35.08;100547.97;5034070;28;20087;-69
2024/03/06 07:45:11;;;;;;;6.30;2.80;;;;;;;8.50;34.00;100555.06;5017449;28;20044;-69
2024/03/06 07:47:38;;;;;;;2.42;2.20;;;;;;;8.72;33.93;100551.53;5033561;28;20037;-69
2024/03/06 07:50:06;;;;;;;3.40;2.10;;;;;;;8.85;33.37;100560.19;5050418;28;20128;-69
2024/03/06 07:52:33;;;;;;;2.85;2.08;;;;;;;8.95;32.53;100555.81;5001069;28;20086;-69
2024/03/06 07:54:59;;;;;;;5.53;2.08;;;;;;;9.05;32.35;100558.53;5017121;28;20068;-69
2024/03/06 07:57:25;;;;;;;4.55;2.47;;;;;;;9.10;32.13;100561.66;5001187;28;20091;-69
2024/03/06 07:59:52;;;;;;;3.65;2.17;;;;;;;9.17;31.76;100561.03;5016821;28;20045;-69
2024/03/06 08:02:18;;;;;;;4.22;2.10;;;;;;;9.30;31.48;100563.50;5018013;28;20475;-69
2024/03/06 08:04:45;;;;;;;2.78;1.90;;;;;;;9.38;31.37;100561.06;5033785;28;20056;-69
2024/03/06 08:07:12;;;;;;;3.03;1.90;;;;;;;9.29;31.50;100557.34;5035117;28;20186;-69
2024/03/06 08:09:39;;;;;;;2.80;1.85;;;;;;;9.24;30.79;100548.94;5004240;28;20139;-69
2024/03/06 08:12:08;;;;;;;4.60;2.05;;;;;;;9.21;31.35;100559.78;4987189;28;20121;-69
2024/03/06 08:14:34;;;;;;;3.80;1.90;;;;;;;8.95;31.04;100553.16;5020668;28;20059;-69
2024/03/06 08:17:00;;;;;;;3.28;2.00;;;;;;;8.63;31.18;100554.94;5020655;28;20045;-69
2024/03/06 08:19:27;;;;;;;4.85;2.80;;;;;;;8.45;31.47;100551.97;5000550;28;20144;-69
2024/03/06 08:21:54;;;;;;;6.07;2.17;;;;;;;8.22;31.41;100552.94;5016285;28;20057;-69
2024/03/06 08:24:20;;;;;;;5.40;2.47;;;;;;;8.04;31.31;100550.88;4983902;28;20188;-69
2024/03/06 08:26:48;;;;;;;3.97;2.30;;;;;;;7.91;31.44;100550.97;5016057;28;20134;-69
2024/03/06 08:29:14;;;;;;;3.65;2.47;;;;;;;7.82;32.01;100556.13;4999428;28;20376;-69
2024/03/06 08:31:41;;;;;;;4.38;2.60;;;;;;;7.79;31.83;100551.94;4999485;28;20044;-69
2024/03/06 08:34:09;;;;;;;4.47;2.50;;;;;;;7.84;32.23;100546.28;4999423;28;20547;-69
2024/03/06 08:36:35;;;;;;;4.75;2.40;;;;;;;7.97;32.31;100547.00;4999577;28;20049;-69
2024/03/06 08:39:02;;;;;;;4.10;2.25;;;;;;;8.19;31.60;100547.00;4983305;28;20404;-68
2024/03/06 08:41:28;;;;;;;7.82;2.78;;;;;;;8.34;31.05;100554.63;5032552;28;20045;-69
2024/03/06 08:43:55;;;;;;;7.35;3.78;;;;;;;8.49;30.90;100555.19;4999418;28;20057;-69
2024/03/06 08:46:25;;;;;;;5.55;3.15;;;;;;;8.62;30.92;100552.41;5015439;28;20041;-69
2024/03/06 08:48:51;;;;;;;6.13;3.35;;;;;;;8.57;30.49;100556.28;4999403;28;20143;-69
2024/03/06 08:51:17;;;;;;;8.45;3.75;;;;;;;8.45;30.79;100544.03;5015685;28;20136;-69
2024/03/06 08:53:45;;;;;;;4.93;2.45;;;;;;;8.26;30.40;100538.50;4998856;28;20056;-69
2024/03/06 08:56:18;;;;;;;9.20;2.40;;;;;;;8.19;31.34;100547.88;4989566;28;20055;-69
2024/03/06 08:58:45;;;;;;;5.32;2.65;;;;;;;8.13;31.18;100544.84;5034891;28;20395;-69
2024/03/06 09:01:14;;;;;;;3.72;2.47;;;;;;;8.22;31.52;100546.78;5019806;28;20056;-69
2024/03/06 09:03:41;;;;;;;4.65;2.40;;;;;;;8.14;31.43;100549.16;5053533;28;20056;-69
2024/03/06 09:06:09;;;;;;;5.75;2.60;;;;;;;8.11;31.02;100549.41;5036307;28;20387;-68
2024/03/06 09:08:39;;;;;;;3.33;2.15;;;;;;;8.13;31.02;100542.22;5036822;28;20049;-68
2024/03/06 09:11:07;;;;;;;3.90;2.10;;;;;;;8.03;30.35;100551.81;5003698;28;20442;-69
2024/03/06 09:13:37;;;;;;;5.80;2.15;;;;;;;8.00;30.40;100536.19;5069238;28;20376;-70
2024/03/06 09:16:06;;;;;;;9.70;2.60;;;;;;;7.95;30.47;100538.38;5003705;28;20036;-69
2024/03/06 09:18:35;;;;;;;2.50;1.90;;;;;;;7.98;30.50;100541.59;5018387;28;20090;-70
2024/03/06 09:21:04;;;;;;;3.78;2.30;;;;;;;7.94;30.01;100541.94;5034903;28;20049;-69
2024/03/06 09:23:32;;;;;;;4.45;1.80;;;;;;;7.97;30.26;100534.63;5004350;28;20133;-69
2024/03/06 09:26:00;;;;;;;4.97;1.98;;;;;;;8.16;29.92;100531.38;4979804;28;20485;-69
2024/03/06 09:28:29;;;;;;;3.10;2.05;;;;;;;8.41;29.85;100531.16;4979780;28;20096;-69
2024/03/06 09:31:01;;;;;;;3.40;1.90;;;;;;;8.54;29.54;100531.84;4947349;28;20050;-69
2024/03/06 09:33:31;;;;;;;6.38;1.90;;;;;;;8.54;29.00;100531.84;4980487;28;20045;-70
2024/03/06 09:36:05;;;;;;;5.38;2.10;;;;;;;8.48;28.45;100524.41;4979703;28;20046;-70
2024/03/06 09:38:32;;;;;;;4.43;1.73;;;;;;;8.30;28.88;100533.81;4981009;28;20072;-69
2024/03/06 09:41:00;;;;;;;3.95;1.95;;;;;;;8.33;29.30;100536.22;4979011;28;20094;-69
2024/03/06 09:43:28;;;;;;;2.88;1.75;;;;;;;8.33;28.98;100520.34;4978944;28;20520;-69
2024/03/06 09:45:56;;;;;;;2.80;1.70;;;;;;;8.27;28.85;100528.75;4956021;28;20062;-69
2024/03/06 09:48:25;;;;;;;4.72;2.30;;;;;;;8.31;29.07;100530.19;4940258;28;20498;-69
2024/03/06 09:50:55;;;;;;;3.42;2.17;;;;;;;8.40;28.74;100521.50;4956113;28;20046;-69
2024/03/06 09:53:24;;;;;;;3.65;2.00;;;;;;;8.53;28.84;100524.88;4956122;28;20059;-69
2024/03/06 09:55:51;;;;;;;4.45;2.08;;;;;;;8.73;28.40;100512.66;4940198;28;20042;-69
2024/03/06 09:58:19;;;;;;;5.43;2.05;;;;;;;8.88;28.02;100516.69;4934603;28;20054;-69
2024/03/06 10:00:49;;;;;;;8.43;2.00;;;;;;;9.02;27.84;100524.34;4940883;28;20181;-69
2024/03/06 10:03:16;;;;;;;6.00;2.28;;;;;;;8.88;27.67;100528.13;4940743;28;20051;-69
2024/03/06 10:05:46;;;;;;;5.40;2.70;;;;;;;8.85;28.15;100517.81;4939932;28;20397;-69
2024/03/06 10:08:16;;;;;;;3.33;2.08;;;;;;;8.89;28.22;100521.88;4955815;28;20541;-69
2024/03/06 10:10:43;;;;;;;4.50;2.05;;;;;;;8.96;28.00;100517.75;4933554;29;20055;-69
2024/03/06 10:13:12;;;;;;;7.57;3.53;;;;;;;9.03;27.74;100510.97;4902052;29;20066;-71
2024/03/06 10:15:41;;;;;;;5.17;2.03;;;;;;;9.08;28.09;100511.44;4902314;29;20070;-69
2024/03/06 10:18:17;;;;;;;5.07;3.13;;;;;;;9.14;27.84;100510.94;4936531;29;20197;-70
2024/03/06 10:20:49;;;;;;;3.30;2.13;;;;;;;9.31;27.70;100506.88;4898256;29;20051;-69
2024/03/06 10:23:17;;;;;;;5.93;3.03;;;;;;;9.46;26.85;100513.53;4917273;29;20055;-69
2024/03/06 10:25:52;;;;;;;4.18;2.33;;;;;;;9.59;26.93;100507.06;4937101;29;20070;-69
2024/03/06 10:28:23;;;;;;;3.05;2.22;;;;;;;9.56;26.60;100499.34;4938191;29;20047;-69
2024/03/06 10:30:51;;;;;;;3.70;2.53;;;;;;;9.57;27.06;100505.50;4936105;29;20565;-69
2024/03/06 10:33:19;;;;;;;7.47;2.60;;;;;;;9.77;27.08;100500.19;4936305;29;20494;-69
2024/03/06 10:35:49;;;;;;;3.53;2.25;;;;;;;10.04;26.68;100496.97;4952010;29;20206;-69
2024/03/06 10:38:19;;;;;;;5.78;3.20;;;;;;;10.21;26.35;100497.19;4923893;28;20409;-69
2024/03/06 10:40:46;;;;;;;6.63;2.50;;;;;;;10.44;26.16;100503.09;4941811;28;20050;-69
2024/03/06 10:43:13;;;;;;;5.43;2.70;;;;;;;10.77;25.66;100497.44;4935585;29;20051;-70
2024/03/06 10:45:50;;;;;;;4.75;2.20;;;;;;;11.14;25.96;100497.59;4936120;29;20371;-69
2024/03/06 10:48:18;;;;;;;3.67;2.42;;;;;;;11.62;25.52;100501.03;4936469;29;20054;-69
2024/03/06 10:50:48;;;;;;;6.35;2.40;;;;;;;12.09;24.68;100505.38;4941597;28;20063;-69
2024/03/06 10:53:16;;;;;;;4.03;2.90;;;;;;;12.57;23.88;100499.81;4974321;28;20061;-69
2024/03/06 10:55:49;;;;;;;5.25;2.30;;;;;;;12.87;22.93;100499.47;4974167;28;20046;-69
2024/03/06 10:58:15;;;;;;;7.65;2.22;;;;;;;12.89;22.58;100494.81;4990644;28;20046;-68
2024/03/06 11:00:47;;;;;;;4.32;2.40;;;;;;;13.21;22.18;100485.31;4990315;28;20058;-68
2024/03/06 11:03:15;;;;;;;6.05;3.20;;;;;;;14.09;21.97;100484.22;4990499;28;20516;-69
2024/03/06 11:05:42;;;;;;;7.13;2.90;;;;;;;15.62;20.76;100488.06;4915280;29;20596;-69
2024/03/06 11:08:13;;;;;;;7.53;3.30;;;;;;;17.02;19.47;100480.75;4882558;29;20052;-69
2024/03/06 11:10:44;;;;;;;5.20;2.70;;;;;;;17.70;18.52;100488.78;4914140;29;20446;-69
2024/03/06 11:13:20;;;;;;;4.38;2.50;;;;;;;18.56;17.50;100480.94;4896694;29;20052;-69
2024/03/06 11:15:47;;;;;;;6.93;2.85;;;;;;;19.36;16.96;100483.25;4898070;29;20505;-70
2024/03/06 11:18:29;;;;;;;8.75;3.80;;;;;;;20.08;16.55;100473.00;4898134;29;20091;-69
2024/03/06 11:21:04;;;;;;;4.03;2.40;;;;;;;20.61;15.90;100468.69;4897801;29;20044;-69
2024/03/06 11:23:30;;;;;;;4.32;2.40;;;;;;;21.05;15.20;100471.78;4897618;29;20952;-69